Terminal Aerodrome Forecast
Issued by NWS

Home | Current Version | Previous Version | Text Only | Print | Product List | Glossary On
Versions: 1 2 3 4 5 6 7 8 9 10 11 12 13 14 15 16 17 18 19 20 21 22 23 24
895
FTUS41 KPBZ 122338
TAFLBE
TAF
KLBE 122338Z 1300/1324 25010KT 3SM -SN OVC015
     FM130300 26012G22KT 2SM -SHSN OVC015
      TEMPO 1304/1306 30015G30KT 1SM -SHSN OVC007
     FM130800 28012G25KT 2SM -SHSN OVC015
     FM131500 30012G25KT 4SM -SHSN OVC025=

USA.gov is the U.S. government's official web portal to all federal, state and local government web resources and services.